Time;durP1;ratioP1;P1;durP2;ratioP2;P2;SDS_P1;SDS_P2;PMS_P1;PMS_P2;Temp;Humidity;BMP_temperature;BMP_pressure;BME280_temperature;BME280_humidity;BME280_pressure;Samples;Min_cycle;Max_cycle;Signal;HPM_P1;HPM_P2
2021/06/27 06:29:10;;;;;;;;;22.75;21.75;;;;;19.64;76.17;101131.91;5830945;23;46019;-77
2021/06/27 06:31:35;;;;;;;;;20.75;20.75;;;;;19.65;76.56;101125.63;4977847;28;46485;-77
2021/06/27 06:34:01;;;;;;;;;21.25;18.00;;;;;19.66;75.83;101121.13;4978676;28;45717;-77
2021/06/27 06:36:26;;;;;;;;;23.50;22.25;;;;;19.66;76.12;101124.66;4981211;28;45326;-77
2021/06/27 06:38:52;;;;;;;;;19.75;19.75;;;;;19.70;76.03;101125.31;4980422;28;45455;-77
2021/06/27 06:41:18;;;;;;;;;22.25;21.50;;;;;19.70;76.04;101125.31;4980314;28;46532;-77
2021/06/27 06:43:43;;;;;;;;;24.25;21.75;;;;;19.73;75.71;101119.75;4981286;28;45153;-77
2021/06/27 06:46:08;;;;;;;;;21.00;20.00;;;;;19.77;75.55;101128.41;4979893;28;45852;-77
2021/06/27 06:48:34;;;;;;;;;18.50;16.00;;;;;19.81;74.63;101137.06;4977469;28;45221;-77
2021/06/27 06:50:59;;;;;;;;;20.00;19.25;;;;;19.83;74.38;101136.00;4980966;28;45379;-77
2021/06/27 06:53:24;;;;;;;;;22.00;18.50;;;;;19.83;74.22;101135.16;4976103;28;45449;-77
2021/06/27 06:55:50;;;;;;;;;19.25;17.50;;;;;19.86;73.63;101134.94;4970834;28;45357;-77
2021/06/27 06:58:16;;;;;;;;;15.50;15.50;;;;;19.88;73.05;101133.03;4971956;28;45391;-77
2021/06/27 07:00:41;;;;;;;;;16.75;16.75;;;;;19.90;72.72;101136.47;4980361;28;45412;-77
2021/06/27 07:03:08;;;;;;;;;18.25;16.00;;;;;19.95;72.66;101142.31;4980305;28;45443;-77
2021/06/27 07:05:34;;;;;;;;;16.50;15.25;;;;;19.95;72.88;101138.81;4981329;28;45347;-77
2021/06/27 07:08:00;;;;;;;;;16.00;16.00;;;;;20.01;72.93;101136.59;4978350;28;45510;-77
2021/06/27 07:10:25;;;;;;;;;15.50;15.50;;;;;20.06;73.34;101138.94;4980698;28;46375;-77
2021/06/27 07:12:51;;;;;;;;;17.25;16.75;;;;;20.08;71.90;101138.84;4980714;28;45455;-77
2021/06/27 07:15:16;;;;;;;;;20.00;18.75;;;;;20.08;72.43;101128.16;4980883;28;45347;-77
2021/06/27 07:17:42;;;;;;;;;21.00;18.25;;;;;20.15;71.89;101137.50;4980699;28;45746;-77
2021/06/27 07:20:09;;;;;;;;;18.00;17.00;;;;;20.17;72.05;101130.25;4977361;28;45470;-77
2021/06/27 07:22:35;;;;;;;;;22.50;20.75;;;;;20.19;72.32;101125.66;4977897;28;45424;-77
2021/06/27 07:25:01;;;;;;;;;20.75;19.50;;;;;20.21;72.87;101139.75;4971047;28;45297;-77
2021/06/27 07:27:26;;;;;;;;;22.25;18.25;;;;;20.27;72.62;101137.63;4980967;28;45235;-77
2021/06/27 07:29:51;;;;;;;;;17.75;15.75;;;;;20.29;71.81;101141.06;4980581;28;46179;-77
2021/06/27 07:32:17;;;;;;;;;24.25;21.50;;;;;20.31;72.56;101136.47;4978248;28;45232;-77
2021/06/27 07:34:42;;;;;;;;;19.50;18.00;;;;;20.31;71.99;101133.78;4978391;28;45415;-77
2021/06/27 07:37:08;;;;;;;;;17.25;17.25;;;;;20.33;71.65;101126.53;4973197;28;45379;-77
2021/06/27 07:39:34;;;;;;;;;18.00;17.75;;;;;20.34;71.38;101123.78;4966377;28;45459;-77
2021/06/27 07:41:59;;;;;;;;;19.25;17.75;;;;;20.39;71.12;101123.44;4976968;28;45805;-76
2021/06/27 07:44:25;;;;;;;;;20.75;19.00;;;;;20.43;71.12;101126.75;4972068;28;45439;-76
2021/06/27 07:46:50;;;;;;;;;17.50;17.50;;;;;20.44;70.88;101131.13;4967191;28;45364;-77
2021/06/27 07:49:16;;;;;;;;;18.25;17.50;;;;;20.42;72.19;101125.88;4973941;28;46953;-77
2021/06/27 07:51:41;;;;;;;;;23.00;19.50;;;;;20.41;72.15;101118.00;4971830;28;45337;-77
2021/06/27 07:54:06;;;;;;;;;26.00;19.25;;;;;20.43;71.69;101118.75;4975371;28;45269;-77
2021/06/27 07:56:32;;;;;;;;;26.75;22.75;;;;;20.46;71.17;101115.88;4970840;28;45421;-77
2021/06/27 07:58:57;;;;;;;;;20.00;17.75;;;;;20.46;71.52;101103.38;4974270;28;45985;-77
2021/06/27 08:01:23;;;;;;;;;22.50;19.00;;;;;20.48;71.16;101107.75;4979939;28;45324;-77
2021/06/27 08:03:49;;;;;;;;;18.50;17.25;;;;;20.50;71.47;101105.81;4978829;28;45194;-77
2021/06/27 08:06:14;;;;;;;;;15.75;15.50;;;;;20.51;70.96;101107.53;4977430;28;46974;-76
2021/06/27 08:08:39;;;;;;;;;19.25;17.75;;;;;20.54;71.37;101110.00;4979438;28;45322;-77
2021/06/27 08:11:05;;;;;;;;;19.00;19.00;;;;;20.55;70.81;101111.69;4980129;28;46912;-77
2021/06/27 08:13:30;;;;;;;;;19.00;18.25;;;;;20.57;70.95;101112.44;4980382;28;45348;-77
2021/06/27 08:15:58;;;;;;;;;18.00;17.25;;;;;20.57;72.06;101109.75;4979613;28;45432;-77
2021/06/27 08:18:23;;;;;;;;;21.75;20.25;;;;;20.57;71.03;101113.28;4978685;28;47231;-77
2021/06/27 08:20:49;;;;;;;;;18.50;18.00;;;;;20.56;70.45;101116.09;4980406;28;45405;-78
2021/06/27 08:23:14;;;;;;;;;17.25;17.25;;;;;20.58;70.79;101108.81;4976699;28;45747;-77
2021/06/27 08:25:40;;;;;;;;;15.75;15.25;;;;;20.60;70.55;101112.22;4979583;28;45393;-77
2021/06/27 08:28:05;;;;;;;;;20.25;17.25;;;;;20.63;70.88;101122.69;4979187;28;45490;-77
2021/06/27 08:30:31;;;;;;;;;21.25;19.50;;;;;20.66;70.09;101117.16;4978356;28;45466;-77
2021/06/27 08:32:56;;;;;;;;;23.50;22.25;;;;;20.66;70.17;101124.31;4978613;28;45384;-77
2021/06/27 08:35:23;;;;;;;;;24.50;19.75;;;;;20.66;69.91;101133.16;4978741;28;47049;-77
2021/06/27 08:37:51;;;;;;;;;21.75;20.25;;;;;20.65;70.14;101141.28;4979325;28;46405;-77
2021/06/27 08:40:18;;;;;;;;;23.00;20.00;;;;;20.59;69.60;101147.91;4977812;28;46227;-76
2021/06/27 08:42:44;;;;;;;;;20.75;18.50;;;;;20.59;70.28;101147.91;4978522;28;45419;-76
2021/06/27 08:45:12;;;;;;;;;22.25;19.75;;;;;20.61;71.10;101145.13;4979748;28;45572;-76
2021/06/27 08:47:38;;;;;;;;;20.50;17.50;;;;;20.63;70.60;101135.19;4979820;28;46463;-76
2021/06/27 08:50:06;;;;;;;;;22.00;21.50;;;;;20.66;71.02;101140.31;4979650;28;45411;-76
2021/06/27 08:52:33;;;;;;;;;20.50;19.25;;;;;20.71;70.96;101140.00;4978810;28;45467;-76
2021/06/27 08:54:59;;;;;;;;;19.50;19.00;;;;;20.73;70.86;101138.94;4979828;28;45480;-77
2021/06/27 08:57:24;;;;;;;;;18.25;16.75;;;;;20.77;70.36;101134.22;4978594;28;47474;-77
2021/06/27 08:59:50;;;;;;;;;22.75;20.50;;;;;20.79;70.59;101134.97;4978715;28;45370;-77
2021/06/27 09:02:15;;;;;;;;;26.25;25.00;;;;;20.82;71.18;101142.75;4979017;28;45281;-77
2021/06/27 09:04:43;;;;;;;;;17.25;17.25;;;;;20.86;70.47;101144.28;4979082;28;45331;-77
2021/06/27 09:07:32;;;;;;;;;24.00;21.50;;;;;20.88;71.20;101147.69;4977630;28;47381;-77
2021/06/27 09:10:04;;;;;;;;;22.00;21.25;;;;;20.89;70.99;101154.72;4977988;28;45297;-77
2021/06/27 09:12:52;;;;;;;;;27.75;22.50;;;;;20.90;71.07;101150.22;4980860;28;45422;-77
2021/06/27 09:15:43;;;;;;;;;23.00;21.00;;;;;20.92;70.97;101148.31;4982811;28;45546;-77
2021/06/27 09:18:14;;;;;;;;;22.00;21.50;;;;;20.94;70.65;101146.38;4981264;28;47452;-77
2021/06/27 09:20:45;;;;;;;;;22.75;21.00;;;;;20.96;71.01;101148.94;4982477;28;45457;-77
2021/06/27 09:23:13;;;;;;;;;26.00;25.25;;;;;20.97;71.25;101145.31;4980778;28;45301;-77
2021/06/27 09:25:40;;;;;;;;;30.75;23.75;;;;;21.00;71.75;101145.97;4982516;28;45358;-77
2021/06/27 09:28:13;;;;;;;;;29.50;28.50;;;;;21.03;72.01;101150.25;4981458;28;48546;-77
2021/06/27 09:30:50;;;;;;;;;29.50;24.75;;;;;21.04;72.05;101148.44;4981943;28;45577;-77
2021/06/27 09:33:17;;;;;;;;;20.75;20.00;;;;;21.07;71.06;101157.09;4979455;28;45237;-77
2021/06/27 09:35:50;;;;;;;;;27.75;24.75;;;;;21.09;71.25;101149.81;4980852;28;45415;-78
2021/06/27 09:38:22;;;;;;;;;26.75;25.25;;;;;21.10;70.89;101156.88;4980549;28;45408;-77
2021/06/27 09:40:51;;;;;;;;;27.50;24.00;;;;;21.13;71.02;101159.34;4980847;28;45810;-77
2021/06/27 09:43:18;;;;;;;;;23.75;20.50;;;;;21.17;70.48;101161.75;4972581;28;45242;-77
2021/06/27 09:46:14;;;;;;;;;28.25;25.25;;;;;21.18;70.45;101169.69;4981545;28;45219;-77
2021/06/27 09:48:53;;;;;;;;;19.75;19.00;;;;;21.21;70.39;101173.97;4980601;28;47418;-77
2021/06/27 09:51:20;;;;;;;;;24.50;22.75;;;;;21.23;70.87;101177.38;4981183;28;45568;-77
2021/06/27 09:53:47;;;;;;;;;31.50;28.25;;;;;21.25;71.36;101172.75;4982003;28;45355;-77
2021/06/27 09:56:13;;;;;;;;;33.75;26.00;;;;;21.30;70.80;101183.13;4982104;28;45419;-77
2021/06/27 09:58:39;;;;;;;;;28.75;25.00;;;;;21.31;70.90;101180.31;4981725;28;45701;-77
2021/06/27 10:01:21;;;;;;;;;25.75;25.25;;;;;21.32;71.42;101181.19;4977444;28;45179;-77
2021/06/27 10:03:54;;;;;;;;;25.50;23.00;;;;;21.34;71.02;101184.59;4982122;28;45474;-77
2021/06/27 10:06:25;;;;;;;;;23.25;22.75;;;;;21.34;71.41;101182.78;4980728;28;45348;-77
2021/06/27 10:08:51;;;;;;;;;25.50;25.50;;;;;21.33;70.87;101178.44;4980534;28;48041;-77
2021/06/27 10:11:19;;;;;;;;;27.00;25.00;;;;;21.38;70.80;101183.44;4981970;28;45164;-77
2021/06/27 10:13:53;;;;;;;;;24.50;22.75;;;;;21.39;70.65;101186.94;4981733;28;45437;-77
2021/06/27 10:16:30;;;;;;;;;19.50;16.50;;;;;21.42;70.63;101194.75;4981434;28;45609;-77
2021/06/27 10:18:58;;;;;;;;;25.25;20.50;;;;;21.42;70.90;101195.59;4965932;28;46341;-77
2021/06/27 10:21:29;;;;;;;;;23.25;20.75;;;;;21.43;70.32;101200.00;4979230;28;45593;-77
2021/06/27 10:23:55;;;;;;;;;23.00;22.50;;;;;21.44;70.15;101200.84;4980487;28;45390;-77
2021/06/27 10:26:23;;;;;;;;;26.50;22.50;;;;;21.42;70.31;101205.44;4981637;28;45495;-77
2021/06/27 10:28:51;;;;;;;;;23.75;22.50;;;;;21.40;70.84;101207.38;4981498;28;46601;-77
2021/06/27 10:31:18;;;;;;;;;27.25;23.00;;;;;21.38;70.12;101207.50;4980490;28;45651;-77
2021/06/27 10:33:45;;;;;;;;;31.25;28.50;;;;;21.39;70.25;101208.31;4981682;28;45319;-77
2021/06/27 10:36:15;;;;;;;;;28.00;23.50;;;;;21.39;70.64;101211.88;4980012;28;45945;-77
2021/06/27 10:38:46;;;;;;;;;26.25;25.25;;;;;21.40;70.86;101212.72;4979174;28;47492;-77
2021/06/27 10:41:12;;;;;;;;;24.00;23.50;;;;;21.39;70.74;101213.66;4980470;28;45375;-77
2021/06/27 10:43:56;;;;;;;;;26.25;25.50;;;;;21.40;71.13;101218.06;4981433;28;45363;-77
2021/06/27 10:46:44;;;;;;;;;26.50;25.25;;;;;21.40;71.10;101218.06;4981580;28;45493;-77
2021/06/27 10:49:29;;;;;;;;;24.75;23.50;;;;;21.40;70.99;101215.41;4979974;28;47666;-76
2021/06/27 10:52:06;;;;;;;;;22.75;21.75;;;;;21.35;70.84;101218.41;4980604;28;45301;-76
2021/06/27 10:54:33;;;;;;;;;27.25;25.25;;;;;21.32;70.87;101219.47;4981032;28;45574;-76
2021/06/27 10:57:44;;;;;;;;;22.25;20.50;;;;;21.30;71.08;101218.72;4981379;28;45464;-76
2021/06/27 11:00:10;;;;;;;;;21.50;21.00;;;;;21.28;70.81;101218.00;4980578;28;46544;-75
2021/06/27 11:02:38;;;;;;;;;21.00;21.00;;;;;21.30;71.74;101220.53;4980441;28;45678;-75
2021/06/27 11:05:44;;;;;;;;;21.25;20.00;;;;;21.30;70.95;101221.41;4976190;28;45749;-75
2021/06/27 11:08:12;;;;;;;;;23.75;22.00;;;;;21.31;71.81;101209.72;4977447;28;45541;-76
2021/06/27 11:10:38;;;;;;;;;23.50;20.75;;;;;21.35;71.81;101219.25;4974382;28;46215;-76
2021/06/27 11:13:04;;;;;;;;;26.00;21.00;;;;;21.38;71.25;101218.19;4976823;28;45336;-75
2021/06/27 11:15:39;;;;;;;;;21.50;20.75;;;;;21.39;71.45;101216.34;4980298;28;45713;-75
2021/06/27 11:18:06;;;;;;;;;22.25;21.50;;;;;21.40;70.86;101218.06;4980479;28;45565;-75
2021/06/27 11:20:52;;;;;;;;;27.00;25.50;;;;;21.42;71.07;101218.81;4980619;28;46619;-75
2021/06/27 11:23:18;;;;;;;;;21.50;18.00;;;;;21.43;70.40;101221.41;4972371;28;45560;-75
2021/06/27 11:25:48;;;;;;;;;20.25;18.50;;;;;21.43;70.77;101226.75;4981088;28;45390;-75
2021/06/27 11:28:17;;;;;;;;;17.75;16.50;;;;;21.44;71.08;101223.09;4980941;28;45435;-75
2021/06/27 11:30:43;;;;;;;;;21.50;19.00;;;;;21.45;70.64;101218.59;4979126;28;47042;-75
2021/06/27 11:33:34;;;;;;;;;15.25;15.00;;;;;21.48;70.19;101227.22;4978582;28;45720;-75
2021/06/27 11:35:59;;;;;;;;;16.25;14.75;;;;;21.50;70.26;101223.59;4978643;28;45874;-75
2021/06/27 11:38:43;;;;;;;;;22.25;18.25;;;;;21.55;70.09;101222.31;4980288;28;45505;-75
2021/06/27 11:41:36;;;;;;;;;18.00;15.00;;;;;21.57;69.96;101223.06;4974134;28;47235;-75
2021/06/27 11:44:13;;;;;;;;;17.75;17.75;;;;;21.59;69.78;101221.13;4976057;28;45741;-75
2021/06/27 11:46:42;;;;;;;;;20.50;18.25;;;;;21.61;70.00;101228.19;4980499;28;45209;-75
2021/06/27 11:49:14;;;;;;;;;19.50;17.75;;;;;21.64;70.07;101230.63;4980258;28;45496;-75
2021/06/27 11:51:45;;;;;;;;;19.00;17.00;;;;;21.63;69.92;101229.75;4980486;28;45398;-75
2021/06/27 11:54:16;;;;;;;;;16.25;15.50;;;;;21.62;70.03;101236.09;4980492;28;45726;-75
2021/06/27 11:57:03;;;;;;;;;16.75;14.25;;;;;21.62;69.85;101230.75;4980173;28;45237;-75
2021/06/27 11:59:41;;;;;;;;;18.00;18.00;;;;;21.61;69.55;101228.19;4980014;28;45333;-75
2021/06/27 12:02:18;;;;;;;;;18.75;18.50;;;;;21.61;70.26;101231.69;4979724;28;46578;-75
2021/06/27 12:04:52;;;;;;;;;16.25;15.50;;;;;21.59;69.88;101226.47;4977110;28;45613;-75
2021/06/27 12:07:27;;;;;;;;;22.75;17.75;;;;;21.62;70.72;101227.22;4978550;28;45393;-75
2021/06/27 12:09:53;;;;;;;;;12.75;12.75;;;;;21.62;70.39;101229.88;4978597;28;47287;-75
2021/06/27 12:12:38;;;;;;;;;15.00;14.50;;;;;21.64;70.07;101227.94;4973350;28;46451;-76
2021/06/27 12:15:14;;;;;;;;;20.00;15.25;;;;;21.64;70.23;101234.16;4979003;28;45560;-76
2021/06/27 12:17:44;;;;;;;;;16.75;15.25;;;;;21.64;69.86;101222.59;4979082;28;45438;-76
2021/06/27 12:20:12;;;;;;;;;14.75;14.75;;;;;21.62;69.93;101220.03;4978958;28;45510;-76
2021/06/27 12:22:47;;;;;;;;;16.75;16.50;;;;;21.59;69.67;101220.25;4979183;28;46496;-76
2021/06/27 12:25:13;;;;;;;;;14.00;13.25;;;;;21.59;69.99;101213.09;4980083;28;45238;-76
2021/06/27 12:27:47;;;;;;;;;16.50;16.00;;;;;21.61;69.70;101206.78;4980327;28;45356;-76
2021/06/27 12:30:13;;;;;;;;;19.50;15.75;;;;;21.64;69.72;101211.91;4979340;28;45746;-76
2021/06/27 12:32:58;;;;;;;;;14.25;14.25;;;;;21.66;70.08;101204.63;4977069;28;47901;-76
2021/06/27 12:35:24;;;;;;;;;17.25;14.00;;;;;21.65;69.05;101208.28;4980259;28;45357;-76
2021/06/27 12:37:49;;;;;;;;;16.25;14.75;;;;;21.66;69.80;101204.63;4977430;28;45270;-76
2021/06/27 12:40:15;;;;;;;;;15.75;13.75;;;;;21.66;69.33;101192.09;4979353;28;45414;-76
2021/06/27 12:42:40;;;;;;;;;14.50;13.25;;;;;21.68;68.67;101187.50;4979866;28;46650;-76
2021/06/27 12:45:19;;;;;;;;;16.75;14.25;;;;;21.70;68.89;101185.53;4979682;28;45283;-76
2021/06/27 12:47:47;;;;;;;;;16.25;15.75;;;;;21.72;69.13;101185.47;4982655;28;45488;-76
2021/06/27 12:50:13;;;;;;;;;17.50;14.00;;;;;21.73;69.17;101194.34;4982980;28;45186;-76
2021/06/27 12:52:43;;;;;;;;;15.75;15.50;;;;;21.75;69.40;101179.03;4983499;28;46437;-76
2021/06/27 12:55:13;;;;;;;;;11.50;11.00;;;;;21.77;68.88;101171.75;4975128;28;45706;-76
2021/06/27 12:57:41;;;;;;;;;11.50;11.25;;;;;21.77;68.87;101169.91;4977775;28;45542;-76
2021/06/27 13:00:16;;;;;;;;;11.50;10.50;;;;;21.83;68.22;101183.81;4982304;28;45242;-76
2021/06/27 13:02:47;;;;;;;;;10.00;10.00;;;;;21.84;68.71;101174.81;4981796;28;46466;-76
2021/06/27 13:05:14;;;;;;;;;9.25;8.75;;;;;21.79;67.81;101162.63;4982831;28;45508;-76
2021/06/27 13:07:43;;;;;;;;;10.75;10.75;;;;;21.79;68.22;101164.44;4977664;28;45491;-76
2021/06/27 13:10:10;;;;;;;;;10.25;10.00;;;;;21.83;68.69;101157.06;4983178;28;45416;-76
2021/06/27 13:12:45;;;;;;;;;8.50;8.25;;;;;21.85;67.60;101147.94;4981910;28;47479;-76
2021/06/27 13:15:16;;;;;;;;;13.25;11.00;;;;;21.84;67.49;101140.88;4981623;28;45481;-76
2021/06/27 13:17:49;;;;;;;;;11.75;11.00;;;;;21.81;67.70;101144.63;4983182;28;45349;-76
2021/06/27 13:20:21;;;;;;;;;11.75;11.75;;;;;21.83;67.62;101149.03;4982895;28;45529;-76
2021/06/27 13:23:25;;;;;;;;;12.00;12.00;;;;;21.81;67.81;101144.63;4982863;28;46285;-76
2021/06/27 13:26:07;;;;;;;;;12.00;11.50;;;;;21.85;67.35;101147.09;4982398;28;45336;-76
2021/06/27 13:28:44;;;;;;;;;15.50;11.25;;;;;21.87;67.25;101142.50;4982961;28;45322;-76
2021/06/27 13:31:10;;;;;;;;;12.00;12.00;;;;;21.90;67.31;101139.59;4982036;28;45400;-76
2021/06/27 13:33:36;;;;;;;;;13.00;13.00;;;;;21.91;67.40;101128.78;4982576;28;45517;-76
2021/06/27 13:36:07;;;;;;;;;11.50;11.50;;;;;21.91;67.42;101133.28;4977666;28;45322;-76
2021/06/27 13:38:38;;;;;;;;;15.75;15.50;;;;;21.86;66.96;101130.94;4975048;28;45503;-76
2021/06/27 13:41:05;;;;;;;;;13.25;13.25;;;;;21.85;67.70;101133.72;4980942;28;47493;-76
2021/06/27 13:43:31;;;;;;;;;16.25;14.25;;;;;21.81;67.47;101128.59;4977371;28;46193;-76
2021/06/27 13:45:57;;;;;;;;;14.25;13.00;;;;;21.78;67.36;101123.47;4975008;28;45385;-76
2021/06/27 13:48:22;;;;;;;;;16.00;14.75;;;;;21.72;67.44;101123.94;4982543;28;45263;-76
2021/06/27 13:50:48;;;;;;;;;11.50;11.50;;;;;21.69;67.56;101118.81;4982698;28;45318;-76
2021/06/27 13:53:15;;;;;;;;;15.00;14.75;;;;;21.70;67.51;101125.88;4981013;28;45711;-76
2021/06/27 13:55:40;;;;;;;;;13.75;13.75;;;;;21.70;66.80;101121.34;4980695;28;45341;-76
2021/06/27 13:58:05;;;;;;;;;14.00;14.00;;;;;21.76;66.68;101128.06;4981672;28;45289;-76
2021/06/27 14:00:31;;;;;;;;;18.00;15.25;;;;;21.81;67.14;101125.91;4980318;28;46130;-76
2021/06/27 14:02:57;;;;;;;;;17.00;17.00;;;;;21.83;66.93;101125.78;4981967;28;45506;-76
2021/06/27 14:05:23;;;;;;;;;16.50;15.00;;;;;21.81;67.01;101125.91;4977613;28;45241;-76
2021/06/27 14:07:50;;;;;;;;;18.00;17.25;;;;;21.79;66.83;101129.66;4967320;28;45447;-75
2021/06/27 14:10:18;;;;;;;;;16.00;13.00;;;;;21.80;66.92;101121.50;4982152;28;45590;-76
2021/06/27 14:12:44;;;;;;;;;16.75;15.00;;;;;21.85;67.24;101131.91;4980780;28;48259;-76
2021/06/27 14:15:11;;;;;;;;;14.50;14.50;;;;;21.90;68.08;101127.06;4981885;28;45415;-76
2021/06/27 14:17:37;;;;;;;;;19.00;16.75;;;;;21.95;67.41;101121.38;4979487;28;45467;-76
2021/06/27 14:20:05;;;;;;;;;13.50;13.50;;;;;21.98;67.14;101121.13;4975425;28;45481;-76
2021/06/27 14:22:31;;;;;;;;;15.25;15.00;;;;;21.99;67.05;101122.84;4975643;28;47950;-76
2021/06/27 14:24:58;;;;;;;;;12.25;12.25;;;;;22.00;66.69;101118.34;4977215;28;45237;-75
2021/06/27 14:27:24;;;;;;;;;16.25;14.50;;;;;21.98;67.19;101117.59;4976247;28;45502;-76
2021/06/27 14:29:50;;;;;;;;;14.75;13.00;;;;;21.95;67.36;101124.06;4980319;28;45376;-75
2021/06/27 14:32:15;;;;;;;;;15.75;13.50;;;;;21.93;67.54;101123.28;4980288;28;47824;-76
2021/06/27 14:34:41;;;;;;;;;11.25;10.25;;;;;21.85;67.29;101131.91;4981119;28;45238;-75
2021/06/27 14:37:06;;;;;;;;;16.25;15.75;;;;;21.78;67.03;101136.84;4981604;28;45355;-76
2021/06/27 14:39:32;;;;;;;;;15.00;14.25;;;;;21.69;66.75;101132.19;4977738;28;45573;-76
2021/06/27 14:41:58;;;;;;;;;14.00;14.00;;;;;21.62;67.67;101134.47;4981117;28;45411;-76
2021/06/27 14:44:25;;;;;;;;;13.75;13.25;;;;;21.60;67.92;101125.69;4975404;28;45286;-76
2021/06/27 14:46:53;;;;;;;;;16.75;16.25;;;;;21.58;67.00;101131.16;4973560;28;45552;-76
2021/06/27 14:49:19;;;;;;;;;13.50;13.50;;;;;21.53;67.25;101124.44;4980879;28;46342;-76
2021/06/27 14:51:45;;;;;;;;;16.25;14.25;;;;;21.51;67.58;101131.75;4981418;28;45340;-76
2021/06/27 14:54:11;;;;;;;;;13.75;13.25;;;;;21.48;67.39;101116.78;4980758;28;45527;-75
2021/06/27 14:56:37;;;;;;;;;16.50;15.00;;;;;21.50;67.42;101127.34;4981025;28;45340;-76
2021/06/27 14:59:04;;;;;;;;;15.00;12.75;;;;;21.51;68.08;101123.72;4980585;28;45753;-75
2021/06/27 15:01:31;;;;;;;;;13.75;12.50;;;;;21.53;68.82;101117.25;4981116;28;46198;-75
2021/06/27 15:03:57;;;;;;;;;16.00;12.00;;;;;21.56;68.19;101119.72;4979102;28;45174;-72
2021/06/27 15:06:22;;;;;;;;;17.75;14.75;;;;;21.56;68.14;101118.84;4979877;28;45372;-72
2021/06/27 15:08:48;;;;;;;;;13.75;13.25;;;;;21.55;68.46;101112.69;4980291;28;45446;-72
2021/06/27 15:11:13;;;;;;;;;14.50;13.25;;;;;21.56;67.96;101119.72;4980006;28;45612;-72
2021/06/27 15:13:39;;;;;;;;;11.50;11.00;;;;;21.58;67.96;101130.31;4977620;28;45434;-72
2021/06/27 15:16:06;;;;;;;;;14.50;13.25;;;;;21.56;68.27;101135.75;4980537;28;45495;-73
2021/06/27 15:18:31;;;;;;;;;13.00;13.00;;;;;21.55;67.71;101127.88;4979104;28;46594;-73
2021/06/27 15:20:57;;;;;;;;;10.00;9.00;;;;;21.51;67.84;101126.41;4971295;28;46100;-73
2021/06/27 15:23:23;;;;;;;;;12.25;11.50;;;;;21.47;67.38;101125.75;4980303;28;45305;-73
2021/06/27 15:25:49;;;;;;;;;15.50;12.00;;;;;21.46;67.84;101113.34;4979281;28;45245;-72
2021/06/27 15:28:15;;;;;;;;;14.25;14.25;;;;;21.46;67.88;101113.34;4979443;28;45926;-72
2021/06/27 15:30:41;;;;;;;;;11.25;10.00;;;;;21.46;67.49;101113.34;4979323;28;45354;-73
2021/06/27 15:33:06;;;;;;;;;12.75;11.25;;;;;21.42;66.94;101111.88;4980754;28;45218;-73
2021/06/27 15:35:31;;;;;;;;;11.00;10.50;;;;;21.36;67.64;101107.81;4979392;28;45233;-72
2021/06/27 15:37:57;;;;;;;;;13.50;13.50;;;;;21.31;67.58;101110.00;4978892;28;45431;-72
2021/06/27 15:40:23;;;;;;;;;13.50;12.25;;;;;21.29;67.41;101112.75;4979883;28;46196;-72
2021/06/27 15:42:48;;;;;;;;;14.50;12.00;;;;;21.27;67.76;101120.03;4978261;28;45499;-72
2021/06/27 15:45:14;;;;;;;;;13.25;11.50;;;;;21.28;68.27;101107.53;4978852;28;45320;-72
2021/06/27 15:47:39;;;;;;;;;14.25;14.25;;;;;21.29;67.72;101102.06;4970873;28;45347;-72
2021/06/27 15:50:06;;;;;;;;;13.50;13.50;;;;;21.32;67.67;101098.31;4978544;28;45439;-72
2021/06/27 15:52:32;;;;;;;;;11.75;11.00;;;;;21.32;68.06;101095.66;4980061;28;45303;-72
2021/06/27 15:55:00;;;;;;;;;17.00;13.25;;;;;21.30;67.71;101101.13;4979914;28;45337;-72
2021/06/27 15:57:25;;;;;;;;;13.75;12.00;;;;;21.29;67.77;101091.38;4979886;28;45270;-73
2021/06/27 15:59:51;;;;;;;;;14.00;13.75;;;;;21.29;68.12;101102.06;4978755;28;47091;-72
2021/06/27 16:02:16;;;;;;;;;17.25;15.50;;;;;21.32;67.68;101084.94;4971871;28;45360;-72
2021/06/27 16:04:41;;;;;;;;;15.50;14.50;;;;;21.30;67.44;101087.75;4978754;28;45400;-72
2021/06/27 16:07:07;;;;;;;;;14.00;13.00;;;;;21.30;67.54;101084.22;4978994;28;45475;-72
2021/06/27 16:09:32;;;;;;;;;12.75;12.25;;;;;21.34;67.84;101089.22;4978568;28;47012;-72
2021/06/27 16:11:58;;;;;;;;;11.25;9.25;;;;;21.41;67.20;101094.13;4980063;28;45432;-72
2021/06/27 16:14:23;;;;;;;;;11.00;11.00;;;;;21.43;66.99;101102.88;4978746;28;45341;-72
2021/06/27 16:16:49;;;;;;;;;12.00;11.00;;;;;21.44;67.13;101100.09;4979480;28;45503;-72
2021/06/27 16:19:14;;;;;;;;;12.00;11.50;;;;;21.41;67.20;101094.97;4979385;28;45316;-72
2021/06/27 16:21:41;;;;;;;;;9.75;9.75;;;;;21.37;67.17;101098.84;4967528;28;45296;-72
2021/06/27 16:24:06;;;;;;;;;14.75;11.00;;;;;21.36;67.35;101091.78;4978122;28;45466;-72
2021/06/27 16:26:35;;;;;;;;;10.00;9.75;;;;;21.39;67.66;101085.34;4979273;28;45357;-72
2021/06/27 16:29:01;;;;;;;;;11.00;10.00;;;;;21.40;67.44;101082.56;4979469;28;46579;-72
2021/06/27 16:31:29;;;;;;;;;13.00;12.75;;;;;21.43;67.95;101084.19;4978381;28;45792;-72
2021/06/27 16:33:55;;;;;;;;;12.50;12.50;;;;;21.44;67.95;101077.84;4975289;28;45447;-72
2021/06/27 16:36:20;;;;;;;;;16.75;13.25;;;;;21.45;67.71;101072.41;4970449;28;45830;-73
2021/06/27 16:38:46;;;;;;;;;12.25;11.25;;;;;21.47;67.67;101069.59;4979536;28;45368;-73
2021/06/27 16:41:12;;;;;;;;;13.50;12.50;;;;;21.46;68.33;101068.75;4977414;28;45599;-74
2021/06/27 16:43:38;;;;;;;;;15.00;13.00;;;;;21.49;68.01;101062.31;4965837;28;45349;-78
2021/06/27 16:46:04;;;;;;;;;12.00;12.00;;;;;21.50;67.84;101057.81;4978454;28;47325;-77
2021/06/27 16:48:30;;;;;;;;;16.25;12.25;;;;;21.48;68.09;101068.66;4979940;28;45253;-77
2021/06/27 16:50:56;;;;;;;;;13.75;12.00;;;;;21.48;68.08;101064.13;4978432;28;45455;-77
2021/06/27 16:53:22;;;;;;;;;13.25;13.25;;;;;21.48;67.77;101065.97;4979971;28;45294;-77
2021/06/27 16:55:51;;;;;;;;;11.25;11.00;;;;;21.47;67.79;101066.94;4979920;28;45269;-77
2021/06/27 16:58:17;;;;;;;;;12.00;12.00;;;;;21.47;68.16;101066.94;4979176;28;45442;-77
2021/06/27 17:00:42;;;;;;;;;12.25;10.50;;;;;21.45;68.00;101060.84;4979616;28;45389;-77
2021/06/27 17:03:08;;;;;;;;;11.00;9.75;;;;;21.50;67.90;101068.53;4978355;28;45312;-77
2021/06/27 17:05:33;;;;;;;;;11.75;10.75;;;;;21.51;67.55;101073.75;4977798;28;46948;-78
2021/06/27 17:07:59;;;;;;;;;12.50;12.50;;;;;21.50;67.51;101077.41;4979196;28;46190;-77
2021/06/27 17:10:24;;;;;;;;;12.25;12.00;;;;;21.49;67.35;101083.69;4978858;28;45224;-78
2021/06/27 17:12:56;;;;;;;;;12.00;11.25;;;;;21.47;67.66;101077.63;4979480;28;45261;-77
2021/06/27 17:15:22;;;;;;;;;12.75;12.00;;;;;21.46;67.47;101082.09;4976788;28;46347;-75
2021/06/27 17:17:47;;;;;;;;;11.00;10.25;;;;;21.47;67.91;101081.16;4968229;28;45326;-76
2021/06/27 17:20:15;;;;;;;;;13.25;12.00;;;;;21.45;67.90;101069.72;4978486;28;45317;-74
2021/06/27 17:22:41;;;;;;;;;11.25;11.25;;;;;21.49;67.83;101081.03;4970939;28;45284;-74
2021/06/27 17:25:07;;;;;;;;;11.75;11.00;;;;;21.47;67.28;101074.94;4979511;28;45943;-74
2021/06/27 17:27:34;;;;;;;;;12.25;10.75;;;;;21.48;67.49;101085.53;4978876;28;46490;-74
2021/06/27 17:30:00;;;;;;;;;8.25;8.25;;;;;21.52;67.35;101082.63;4978974;28;45621;-72
2021/06/27 17:32:25;;;;;;;;;11.75;10.00;;;;;21.57;67.52;101084.00;4978924;28;45548;-74
2021/06/27 17:34:50;;;;;;;;;8.50;8.50;;;;;21.62;67.44;101075.63;4982215;28;45325;-74
2021/06/27 17:37:16;;;;;;;;;8.75;8.75;;;;;21.68;67.22;101082.34;4979798;28;48337;-74
2021/06/27 17:39:41;;;;;;;;;8.50;8.50;;;;;21.71;67.04;101084.75;4982619;28;45405;-74
2021/06/27 17:42:09;;;;;;;;;9.50;9.00;;;;;21.75;66.83;101080.06;4979198;28;45442;-74
2021/06/27 17:44:35;;;;;;;;;8.25;7.75;;;;;21.76;66.96;101085.28;4979160;28;45313;-74